^^
Saratoga-Weather Station Historical Data
 
Daily Summary for June 16, 2019 Units:  English    Metric   Both
Daily Weekly Monthly Yearly Custom
  Current: High: Low: Average:
Temperature: 83.5 °F 86.5 °F 71.4 °F 77 °F
Dew Point: 76.6 °F 78.3 °F 70 °F 73.5 °F
Humidity: 80% 96% 73% 89%
Wind Speed: 4mph 8.9mph 0mph 1.2mph
Wind Gust: 12mph 15mph - -
WindNNE - - East
Pressure: 30.03 in 30.06 in 29.97 in -
Precipitation: 0.02 in      
Historical Graphs
 
 
Tabular Data for June 16, 2019
Time Temperature Dew Point Pressure Wind Wind Speed Wind Gust Humidity Rainfall Rate (Hourly) solar
00:04 75.2 °F 72.3 °F 30.06 in Calm     91% 0 in 0.00 W/m2
00:09 75 °F 72.5 °F 30.06 in Calm     92% 0 in 0.00 W/m2
00:14 75 °F 72.5 °F 30.06 in Calm     92% 0 in 0.00 W/m2
00:18 75 °F 72.5 °F 30.06 in Calm     92% 0 in 0.00 W/m2
00:23 74.8 °F 72.3 °F 30.06 in Calm     92% 0 in 0.00 W/m2
00:29 74.8 °F 72.3 °F 30.06 in Calm     92% 0 in 0.00 W/m2
00:34 74.7 °F 72.1 °F 30.06 in Calm     92% 0 in 0.00 W/m2
00:39 74.7 °F 72.1 °F 30.05 in Calm     92% 0 in 0.00 W/m2
00:44 74.5 °F 72 °F 30.05 in Calm     92% 0 in 0.00 W/m2
00:49 74.3 °F 71.8 °F 30.05 in Calm     92% 0 in 0.00 W/m2
00:54 73.9 °F 71.4 °F 30.04 in Calm     92% 0 in 0.00 W/m2
00:59 73.9 °F 71.4 °F 30.04 in Calm     92% 0 in 0.00 W/m2
01:04 73.9 °F 71.4 °F 30.04 in Calm     92% 0 in 0.00 W/m2
01:09 73.9 °F 71.8 °F 30.04 in Calm     93% 0 in 0.00 W/m2
01:14 73.9 °F 71.8 °F 30.04 in Calm     93% 0 in 0.00 W/m2
01:19 73.9 °F 71.8 °F 30.03 in Calm     93% 0 in 0.00 W/m2
01:24 73.9 °F 71.8 °F 30.03 in Calm     93% 0 in 0.00 W/m2
01:29 73.8 °F 71.6 °F 30.03 in Calm     93% 0 in 0.00 W/m2
01:34 73.8 °F 71.6 °F 30.02 in Calm     93% 0 in 0.00 W/m2
01:39 73.8 °F 71.6 °F 30.03 in Calm     93% 0 in 0.00 W/m2
01:44 73.8 °F 71.6 °F 30.03 in Calm     93% 0 in 0.00 W/m2
01:49 73.8 °F 71.6 °F 30.02 in Calm     93% 0 in 0.00 W/m2
01:54 73.8 °F 71.6 °F 30.02 in Calm     93% 0 in 0.00 W/m2
01:58 73.6 °F 71.4 °F 30.02 in Calm     93% 0 in 0.00 W/m2
02:03 73.6 °F 71.4 °F 30.02 in Calm     93% 0 in 0.00 W/m2
02:09 73.4 °F 71.2 °F 30.01 in Calm     93% 0 in 0.00 W/m2
02:14 73.2 °F 71.1 °F 30.01 in Calm     93% 0 in 0.00 W/m2
02:19 73 °F 70.9 °F 30.01 in Calm     93% 0 in 0.00 W/m2
02:24 73 °F 70.9 °F 30.01 in Calm     93% 0 in 0.00 W/m2
02:29 73 °F 71.2 °F 30.01 in Calm     94% 0 in 0.00 W/m2
02:34 73 °F 71.2 °F 30.01 in Calm     94% 0 in 0.00 W/m2
02:39 73.2 °F 71.4 °F 30.01 in Calm     94% 0 in 0.00 W/m2
02:44 73.4 °F 71.6 °F 30.01 in Calm     94% 0 in 0.00 W/m2
02:48 73.4 °F 71.6 °F 30.00 in Calm     94% 0 in 0.00 W/m2
02:54 73.2 °F 71.4 °F 30.00 in Calm     94% 0 in 0.00 W/m2
02:59 73.2 °F 71.4 °F 30.00 in Calm     94% 0 in 0.00 W/m2
03:04 73 °F 71.2 °F 29.99 in Calm     94% 0 in 0.00 W/m2
03:09 73.2 °F 71.4 °F 29.99 in Calm     94% 0 in 0.00 W/m2
03:14 73.2 °F 71.4 °F 29.99 in Calm     94% 0 in 0.00 W/m2
03:19 73 °F 71.2 °F 29.99 in Calm     94% 0 in 0.00 W/m2
03:24 73 °F 71.2 °F 29.99 in Calm     94% 0 in 0.00 W/m2
03:29 73 °F 71.2 °F 29.99 in Calm     94% 0 in 0.00 W/m2
03:34 73 °F 71.2 °F 29.99 in Calm     94% 0 in 0.00 W/m2
03:38 73 °F 71.2 °F 29.99 in Calm     94% 0 in 0.00 W/m2
03:44 73 °F 71.2 °F 29.99 in Calm     94% 0 in 0.00 W/m2
03:49 73 °F 71.2 °F 29.99 in Calm     94% 0 in 0.00 W/m2
03:54 72.9 °F 71.1 °F 29.99 in Calm     94% 0 in 0.00 W/m2
03:59 72.7 °F 70.9 °F 29.99 in Calm     94% 0 in 0.00 W/m2
04:04 72.5 °F 70.7 °F 29.99 in Calm     94% 0 in 0.00 W/m2
04:08 72.3 °F 70.5 °F 29.99 in Calm     94% 0 in 0.00 W/m2
04:14 72.3 °F 70.5 °F 29.98 in Calm     94% 0 in 0.00 W/m2
04:19 72.5 °F 71.1 °F 29.98 in Calm     95% 0 in 0.00 W/m2
04:24 72.5 °F 71.1 °F 29.98 in Calm     95% 0 in 0.00 W/m2
04:29 72.5 °F 71.1 °F 29.98 in Calm     95% 0 in 0.00 W/m2
04:34 72.3 °F 70.5 °F 29.98 in Calm     94% 0 in 0.00 W/m2
04:38 72.3 °F 70.9 °F 29.98 in Calm     95% 0 in 0.00 W/m2
04:44 72.3 °F 70.9 °F 29.98 in Calm     95% 0 in 0.00 W/m2
04:49 72.3 °F 70.9 °F 29.97 in Calm     95% 0 in 0.00 W/m2
04:54 72.1 °F 70.3 °F 29.98 in Calm     94% 0 in 0.00 W/m2
04:59 72 °F 70.2 °F 29.98 in Calm     94% 0 in 0.00 W/m2
05:04 71.8 °F 70 °F 29.98 in Calm     94% 0 in 0.00 W/m2
05:09 71.8 °F 70.3 °F 29.98 in Calm     95% 0 in 0.00 W/m2
05:14 71.8 °F 70.3 °F 29.98 in Calm     95% 0 in 0.00 W/m2
05:19 71.8 °F 70.3 °F 29.98 in Calm     95% 0 in 0.00 W/m2
05:24 71.8 °F 70.3 °F 29.98 in Calm     95% 0 in 0.00 W/m2
05:29 71.8 °F 70.3 °F 29.98 in Calm     95% 0 in 0.00 W/m2
05:34 71.8 °F 70.3 °F 29.98 in Calm     95% 0 in 0.00 W/m2
05:39 71.8 °F 70.3 °F 29.98 in Calm     95% 0 in 0.00 W/m2
05:44 71.8 °F 70.3 °F 29.98 in Calm     95% 0 in 0.00 W/m2
05:49 71.8 °F 70.3 °F 29.99 in Calm     95% 0 in 0.00 W/m2
05:54 71.8 °F 70.3 °F 29.99 in Calm     95% 0 in 0.00 W/m2
05:59 71.8 °F 70.3 °F 29.99 in Calm     95% 0 in 0.00 W/m2
06:04 71.6 °F 70.2 °F 29.99 in Calm     95% 0 in 0.00 W/m2
06:09 71.8 °F 70.3 °F 29.99 in Calm     95% 0 in 0.00 W/m2
06:14 72 °F 70.5 °F 29.99 in Calm     95% 0 in 0.00 W/m2
06:19 72 °F 70.5 °F 29.99 in Calm     95% 0 in 0.00 W/m2
06:24 72 °F 70.5 °F 29.99 in Calm     95% 0 in 0.00 W/m2
06:29 71.8 °F 70.3 °F 29.99 in Calm     95% 0 in 0.00 W/m2
06:34 71.4 °F 70 °F 29.99 in Calm     95% 0 in 5.00 W/m2
06:39 71.6 °F 70.2 °F 29.99 in Calm     95% 0 in 9.00 W/m2
06:43 71.8 °F 70.3 °F 29.99 in Calm     95% 0 in 12.00 W/m2
06:49 71.8 °F 70.5 °F 29.99 in Calm     96% 0 in 16.00 W/m2
06:54 71.8 °F 70.5 °F 29.99 in Calm     96% 0 in 19.00 W/m2
06:59 71.8 °F 70.5 °F 30.00 in Calm     96% 0 in 25.00 W/m2
07:04 72 °F 70.7 °F 30.00 in Calm     96% 0 in 28.00 W/m2
07:09 72.3 °F 71.1 °F 30.00 in Calm     96% 0 in 35.00 W/m2
07:13 72.7 °F 71.4 °F 30.01 in Calm     96% 0 in 47.00 W/m2
07:19 73 °F 71.8 °F 30.01 in Calm     96% 0 in 62.00 W/m2
07:24 73.6 °F 72.3 °F 30.01 in Calm     96% 0 in 86.00 W/m2
07:29 74.3 °F 73 °F 30.01 in Calm     96% 0 in 98.00 W/m2
07:34 74.7 °F 73.4 °F 30.01 in Calm     96% 0 in 132.00 W/m2
07:39 75.2 °F 73.9 °F 30.01 in Calm     96% 0 in 153.00 W/m2
07:44 75.7 °F 74.5 °F 30.01 in Calm     96% 0 in 169.00 W/m2
07:48 76.3 °F 75 °F 30.01 in Calm     96% 0 in 188.00 W/m2
07:54 76.8 °F 75.6 °F 30.02 in Calm     96% 0 in 206.00 W/m2
07:59 77.4 °F 76.1 °F 30.02 in Calm     96% 0 in 223.00 W/m2
08:04 77.7 °F 76.1 °F 30.02 in Calm     95% 0 in 239.00 W/m2
08:09 78.1 °F 76.5 °F 30.02 in Calm     95% 0 in 255.00 W/m2
08:14 78.8 °F 77.2 °F 30.02 in Calm     95% 0 in 272.00 W/m2
08:19 79.2 °F 77 °F 30.02 in Calm     93% 0 in 297.00 W/m2
08:24 79.3 °F 77.2 °F 30.02 in Calm     93% 0 in 316.00 W/m2
08:29 79.7 °F 76.8 °F 30.02 in Calm     91% 0 in 334.00 W/m2
08:34 80.2 °F 77.4 °F 30.02 in Calm     91% 0 in 350.00 W/m2
08:39 80.8 °F 77.9 °F 30.02 in Calm     91% 0 in 369.00 W/m2
08:44 81 °F 77 °F 30.03 in Calm     88% 0 in 387.00 W/m2
08:49 81.1 °F 77.2 °F 30.03 in Calm     88% 0 in 403.00 W/m2
08:54 81.3 °F 77.4 °F 30.03 in Calm     88% 0 in 422.00 W/m2
08:59 81.7 °F 77 °F 30.03 in Calm     86% 0 in 462.00 W/m2
09:04 81.9 °F 77.2 °F 30.03 in Calm     86% 0 in 501.00 W/m2
09:09 82.2 °F 77.2 °F 30.03 in Calm     85% 0 in 519.00 W/m2
09:14 82.2 °F 77.2 °F 30.04 in Calm     85% 0 in 592.00 W/m2
09:19 82.9 °F 77.9 °F 30.03 in Calm     85% 0 in 613.00 W/m2
09:24 82.9 °F 77.5 °F 30.04 in Calm     84% 0 in 109.00 W/m2
09:29 82.6 °F 77.2 °F 30.03 in Calm     84% 0 in 118.00 W/m2
09:34 82.2 °F 76.5 °F 30.04 in ESE 4 mph 4 mph 83% 0 in 130.00 W/m2
09:39 82 °F 76.6 °F 30.03 in Calm     84% 0 in 132.00 W/m2
09:44 82.6 °F 76.8 °F 30.04 in ESE 2.9 mph 4 mph 83% 0 in 670.00 W/m2
09:49 83.1 °F 77.4 °F 30.04 in East 2 mph 3 mph 83% 0 in 703.00 W/m2
09:54 84 °F 77.5 °F 30.04 in ENE 8.1 mph 8 mph 81% 0 in 782.00 W/m2
09:59 84.4 °F 77.5 °F 30.04 in ESE 2.9 mph 4 mph 80% 0 in 153.00 W/m2
10:04 83.8 °F 77 °F 30.04 in SE 4.9 mph 6 mph 80% 0 in 120.00 W/m2
10:09 83.3 °F 76.8 °F 30.04 in SE 0.9 mph 3 mph 81% 0 in 169.00 W/m2
10:14 83.1 °F 76.6 °F 30.04 in SE 4.9 mph 5 mph 81% 0 in 167.00 W/m2
10:19 82.9 °F 76.1 °F 30.03 in SE 4 mph 4 mph 80% 0 in 139.00 W/m2
10:24 82.9 °F 76.5 °F 30.04 in Calm   1 mph 81% 0 in 123.00 W/m2
10:29 83.1 °F 77.4 °F 30.04 in Calm     83% 0 in 149.00 W/m2
10:34 83.1 °F 77.4 °F 30.04 in Calm   1 mph 83% 0 in 206.00 W/m2
10:39 82.9 °F 76.5 °F 30.03 in SE 2.9 mph 5 mph 81% 0 in 294.00 W/m2
10:43 83.5 °F 77 °F 30.04 in ESE 2 mph 4 mph 81% 0 in 935.00 W/m2
10:49 84 °F 76.5 °F 30.03 in East 2.9 mph 3 mph 78% 0 in 327.00 W/m2
10:54 84 °F 76.1 °F 30.03 in East 2 mph 2 mph 77% 0 in 190.00 W/m2
10:59 84.2 °F 76.3 °F 30.03 in East 0.9 mph 3 mph 77% 0 in 190.00 W/m2
11:04 84.9 °F 76.5 °F 30.03 in NNE 2 mph 4 mph 76% 0 in 1065.00 W/m2
11:09 86.2 °F 77.4 °F 30.04 in East 2.9 mph 5 mph 75% 0 in 1023.00 W/m2
11:14 86.5 °F 76.8 °F 30.04 in ESE 2.9 mph 7 mph 73% 0 in 1074.00 W/m2
11:19 86.5 °F 77.7 °F 30.04 in NNW 8.1 mph 13 mph 75% 0 in 332.00 W/m2
11:24 85.5 °F 77 °F 30.04 in NE 6 mph 10 mph 76% 0 in 1074.00 W/m2
11:29 85.5 °F 78.3 °F 30.04 in NNE 6.9 mph 9 mph 79% 0 in 1132.00 W/m2
11:33 85.3 °F 77.2 °F 30.04 in NNW 4.9 mph 11 mph 77% 0 in 323.00 W/m2
11:39 84.6 °F 76.5 °F 30.05 in NE 4.9 mph 10 mph 77% 0 in 192.00 W/m2
11:44 83.3 °F 75.7 °F 30.04 in North 6.9 mph 9 mph 78% 0 in 155.00 W/m2
11:49 82.6 °F 75.4 °F 30.04 in ENE 2 mph 5 mph 79% 0 in 211.00 W/m2
11:54 82.2 °F 75.7 °F 30.04 in NNE 4.9 mph 9 mph 81% 0.01 in 348.00 W/m2
11:59 81.9 °F 75.7 °F 30.04 in NNE 6 mph 8 mph 82% 0.02 in 267.00 W/m2
12:03 81.7 °F 75.9 °F 30.04 in NE 4 mph 7 mph 83% 0.02 in 343.00 W/m2
12:08 82 °F 76.3 °F 30.05 in NE 2.9 mph 8 mph 83% 0.02 in 1120.00 W/m2
12:14 81.7 °F 74.8 °F 30.05 in NNE 4 mph 9 mph 80% 0.02 in 513.00 W/m2
12:19 81.9 °F 76.1 °F 30.04 in NE 4.9 mph 9 mph 83% 0.02 in 1194.00 W/m2
12:23 82.6 °F 75.4 °F 30.04 in NE 4.9 mph 6 mph 79% 0.02 in 1127.00 W/m2
12:28 83.5 °F 76.6 °F 30.04 in NNE 8.1 mph 10 mph 80% 0.02 in 1146.00 W/m2
12:33 84 °F 76.5 °F 30.04 in North 8.1 mph 11 mph 78% 0.02 in 1287.00 W/m2
12:38 83.8 °F 75.4 °F 30.03 in NNE 4.9 mph 9 mph 76% 0.02 in 1120.00 W/m2
12:44 83.8 °F 75.9 °F 30.04 in North 8.1 mph 12 mph 77% 0.02 in 1085.00 W/m2
12:48 83.8 °F 75.9 °F 30.03 in North 2.9 mph 7 mph 77% 0.02 in 1113.00 W/m2
12:54 84.4 °F 75.9 °F 30.03 in NE 4.9 mph 8 mph 76% 0.01 in 1146.00 W/m2
12:58 83.8 °F 75.4 °F 30.04 in NE 8.9 mph 15 mph 76% 0 in 1146.00 W/m2
13:03 83.5 °F 76.3 °F 30.03 in NNE 8.9 mph 9 mph 79% 0 in 1118.00 W/m2
13:08 83.1 °F 75.9 °F 30.03 in NNE 4.9 mph 11 mph 79% 0 in 1102.00 W/m2
13:13 83.5 °F 76.6 °F 30.03 in NNE 4 mph 12 mph 80% 0 in 1202.00 W/m2
Flagler Gun & Archery Club Weather
Compliments of Weather Underground - 2.25 mb